Time;durP1;ratioP1;P1;durP2;ratioP2;P2;SDS_P1;SDS_P2;PMS_P1;PMS_P2;Temp;Humidity;BMP_temperature;BMP_pressure;BME280_temperature;BME280_humidity;BME280_pressure;Samples;Min_cycle;Max_cycle;Signal;HPM_P1;HPM_P2
2022/02/26 00:02:08;;;;;;;22.20;2.88;;;3.70;89.50;;;;;;6121144;23;100138;-75
2022/02/26 00:04:36;;;;;;;17.33;4.35;;;3.70;89.70;;;;;;6121733;23;99790;-73
2022/02/26 00:07:03;;;;;;;20.13;3.53;;;3.70;89.90;;;;;;6071207;23;98576;-75
2022/02/26 00:09:30;;;;;;;22.42;3.85;;;3.70;90.00;;;;;;6122344;23;98465;-75
2022/02/26 00:11:57;;;;;;;19.05;3.10;;;3.70;90.10;;;;;;6095444;23;99255;-75
2022/02/26 00:14:25;;;;;;;14.02;2.53;;;3.60;90.10;;;;;;6121470;23;102357;-72
2022/02/26 00:16:52;;;;;;;20.00;3.05;;;3.60;90.20;;;;;;6121951;23;98965;-72
2022/02/26 00:19:19;;;;;;;17.17;3.10;;;3.60;90.30;;;;;;6121987;23;97752;-73
2022/02/26 00:21:46;;;;;;;34.38;3.85;;;3.60;90.40;;;;;;6121493;23;99333;-73
2022/02/26 00:24:13;;;;;;;18.08;3.67;;;3.60;90.50;;;;;;6070787;23;99126;-73
2022/02/26 00:26:40;;;;;;;22.58;4.40;;;3.60;90.50;;;;;;6121634;23;99322;-73
2022/02/26 00:29:08;;;;;;;22.20;3.97;;;3.50;90.60;;;;;;6121820;23;98498;-73
2022/02/26 00:31:35;;;;;;;14.48;3.40;;;3.50;90.60;;;;;;6093960;23;120614;-73
2022/02/26 00:34:02;;;;;;;17.33;3.10;;;3.50;90.80;;;;;;6095389;23;98926;-73
2022/02/26 00:36:29;;;;;;;30.40;3.75;;;3.50;91.00;;;;;;6122041;23;98373;-72
2022/02/26 00:38:56;;;;;;;25.63;4.07;;;3.50;91.00;;;;;;6071204;23;98572;-75
2022/02/26 00:41:25;;;;;;;23.42;4.20;;;3.50;91.00;;;;;;6095178;23;99287;-72
2022/02/26 00:43:53;;;;;;;16.70;2.90;;;3.50;91.00;;;;;;6121886;23;98932;-73
2022/02/26 00:46:20;;;;;;;16.13;4.28;;;3.50;91.00;;;;;;6095605;23;98877;-73
2022/02/26 00:51:32;;;;;;;17.20;2.97;;;3.40;91.10;;;;;;6098967;23;100531;-75
2022/02/26 00:54:00;;;;;;;21.25;3.67;;;3.40;91.00;;;;;;6121132;23;110334;-75
2022/02/26 00:56:26;;;;;;;20.02;3.00;;;3.40;91.00;;;;;;6046921;23;98472;-75
2022/02/26 00:58:53;;;;;;;24.50;11.27;;;3.40;91.00;;;;;;6095537;23;98500;-75
2022/02/26 01:01:20;;;;;;;21.60;4.10;;;3.30;91.00;;;;;;6094563;23;99270;-75
2022/02/26 01:03:48;;;;;;;19.83;4.22;;;3.30;91.00;;;;;;6095529;23;98997;-75
2022/02/26 01:06:16;;;;;;;19.65;2.97;;;3.30;91.10;;;;;;6095150;23;98585;-75
2022/02/26 01:08:43;;;;;;;14.18;2.50;;;3.30;91.20;;;;;;6122526;23;97696;-75
2022/02/26 01:11:10;;;;;;;20.50;3.50;;;3.40;91.20;;;;;;6095082;23;99278;-73
2022/02/26 01:13:37;;;;;;;19.30;4.50;;;3.40;91.20;;;;;;6094770;23;101656;-73
2022/02/26 01:16:04;;;;;;;20.23;3.10;;;3.40;91.20;;;;;;6120681;23;99256;-72
2022/02/26 01:18:32;;;;;;;22.10;4.03;;;3.40;91.20;;;;;;6094983;23;98518;-72
2022/02/26 01:20:59;;;;;;;17.85;2.70;;;3.40;91.20;;;;;;6095193;23;99291;-72
2022/02/26 01:23:26;;;;;;;23.02;3.30;;;3.40;91.30;;;;;;6094854;23;98993;-73
2022/02/26 01:25:52;;;;;;;16.17;2.92;;;3.40;91.20;;;;;;6070852;23;98543;-72
2022/02/26 01:28:20;;;;;;;24.58;3.88;;;3.30;91.20;;;;;;6094943;23;98548;-73
2022/02/26 01:30:48;;;;;;;19.80;3.08;;;3.30;91.10;;;;;;6095266;23;99322;-72
2022/02/26 01:33:15;;;;;;;15.20;3.67;;;3.30;91.10;;;;;;6095312;23;98886;-72
2022/02/26 01:35:42;;;;;;;20.80;4.15;;;3.30;91.00;;;;;;6095775;23;98584;-72
2022/02/26 01:38:09;;;;;;;23.45;4.47;;;3.20;91.20;;;;;;6095099;23;98524;-72
2022/02/26 01:40:36;;;;;;;16.85;3.10;;;3.20;91.20;;;;;;6120401;23;100008;-72
2022/02/26 01:43:04;;;;;;;23.40;3.40;;;3.20;91.20;;;;;;6121278;23;100009;-72
2022/02/26 01:45:31;;;;;;;16.38;2.83;;;3.20;91.30;;;;;;6094654;23;98607;-71
2022/02/26 01:47:58;;;;;;;15.52;2.85;;;3.20;91.30;;;;;;6070583;23;98530;-72
2022/02/26 01:50:26;;;;;;;19.38;3.42;;;3.20;91.30;;;;;;6120832;23;99357;-72
2022/02/26 01:52:53;;;;;;;17.80;3.40;;;3.20;91.30;;;;;;6121047;23;98954;-72
2022/02/26 01:55:20;;;;;;;15.38;2.95;;;3.10;91.30;;;;;;6094703;23;98595;-72
2022/02/26 01:57:47;;;;;;;19.50;3.42;;;3.10;91.30;;;;;;6071471;23;97855;-72
2022/02/26 02:00:16;;;;;;;20.42;4.57;;;3.10;91.30;;;;;;6094323;23;104164;-72
2022/02/26 02:02:43;;;;;;;12.50;3.35;;;3.00;91.30;;;;;;6121005;23;98957;-72
2022/02/26 02:05:11;;;;;;;24.85;5.00;;;3.00;91.30;;;;;;6094721;23;99808;-72
2022/02/26 02:07:38;;;;;;;16.98;3.63;;;3.00;91.40;;;;;;6094692;23;98579;-72
2022/02/26 02:10:05;;;;;;;17.00;3.05;;;2.90;91.40;;;;;;6094834;23;99358;-72
2022/02/26 02:12:32;;;;;;;14.50;2.70;;;2.90;91.40;;;;;;6093917;23;103994;-72
2022/02/26 02:14:59;;;;;;;19.17;3.03;;;2.90;91.40;;;;;;6094909;23;98492;-72
2022/02/26 02:17:26;;;;;;;19.25;3.72;;;2.90;91.40;;;;;;6094533;23;98541;-72
2022/02/26 02:19:53;;;;;;;23.17;3.65;;;2.80;91.40;;;;;;6094429;23;99217;-72
2022/02/26 02:22:21;;;;;;;28.83;4.22;;;2.80;91.40;;;;;;6120334;23;112304;-72
2022/02/26 02:24:48;;;;;;;22.63;4.35;;;2.80;91.50;;;;;;6121283;23;98465;-72
2022/02/26 02:27:16;;;;;;;26.35;4.47;;;2.80;91.50;;;;;;6069990;23;98772;-72
2022/02/26 02:29:44;;;;;;;19.73;3.50;;;2.70;91.60;;;;;;6120423;23;99876;-72
2022/02/26 02:32:11;;;;;;;17.65;3.90;;;2.70;91.60;;;;;;6093999;23;102216;-72
2022/02/26 02:34:38;;;;;;;17.95;3.05;;;2.70;91.60;;;;;;6120807;23;98527;-72
2022/02/26 02:37:10;;;;;;;24.63;4.10;;;2.70;91.60;;;;;;6121099;23;98419;-72
2022/02/26 02:39:38;;;;;;;19.95;3.28;;;2.60;91.60;;;;;;6120293;23;100684;-72
2022/02/26 02:42:05;;;;;;;22.05;3.35;;;2.60;91.70;;;;;;6094054;23;101517;-72
2022/02/26 02:44:32;;;;;;;16.13;2.78;;;2.60;91.70;;;;;;6094630;23;98544;-72
2022/02/26 02:47:00;;;;;;;12.95;3.13;;;2.60;91.80;;;;;;6121528;23;97772;-72
2022/02/26 02:49:27;;;;;;;30.15;3.65;;;2.60;91.80;;;;;;6119796;23;112273;-72
2022/02/26 02:51:54;;;;;;;20.35;3.25;;;2.50;91.70;;;;;;6093988;23;101668;-72
2022/02/26 02:54:22;;;;;;;19.45;3.60;;;2.50;91.70;;;;;;6120270;23;99216;-72
2022/02/26 02:56:50;;;;;;;12.75;2.97;;;2.50;91.70;;;;;;6121921;23;98455;-72
2022/02/26 02:59:17;;;;;;;19.65;3.08;;;2.50;91.80;;;;;;6121828;23;99341;-72
2022/02/26 03:01:44;;;;;;;19.13;2.92;;;2.50;91.80;;;;;;6095387;23;100102;-72
2022/02/26 03:04:11;;;;;;;15.38;2.42;;;2.50;91.80;;;;;;6072092;23;98568;-72
2022/02/26 03:06:38;;;;;;;20.35;3.25;;;2.40;91.80;;;;;;6071168;23;98669;-72
2022/02/26 03:09:05;;;;;;;12.60;2.80;;;2.40;91.90;;;;;;6071094;23;101817;-72
2022/02/26 03:11:32;;;;;;;19.38;3.20;;;2.40;91.90;;;;;;6095803;23;98828;-72
2022/02/26 03:13:59;;;;;;;11.77;3.33;;;2.40;91.90;;;;;;6122354;23;98372;-72
2022/02/26 03:16:32;;;;;;;27.85;4.78;;;2.40;91.90;;;;;;6121759;23;98451;-72
2022/02/26 03:18:59;;;;;;;13.52;3.58;;;2.40;91.90;;;;;;6070532;23;100081;-75
2022/02/26 03:21:26;;;;;;;20.75;4.28;;;2.30;91.90;;;;;;6070289;23;115525;-75
2022/02/26 03:23:53;;;;;;;17.83;3.22;;;2.30;91.90;;;;;;6122566;23;98581;-75
2022/02/26 03:26:20;;;;;;;21.20;2.95;;;2.30;91.90;;;;;;6122467;23;98576;-74
2022/02/26 03:28:47;;;;;;;19.98;3.97;;;2.30;91.90;;;;;;6095738;23;100578;-75
2022/02/26 03:31:14;;;;;;;30.48;3.75;;;2.30;91.90;;;;;;6095786;23;98983;-75
2022/02/26 03:33:41;;;;;;;11.43;2.90;;;2.20;91.90;;;;;;6071855;23;98530;-74
2022/02/26 03:36:08;;;;;;;17.20;2.78;;;2.20;91.90;;;;;;6122657;23;97753;-75
2022/02/26 03:38:38;;;;;;;18.67;2.85;;;2.10;92.00;;;;;;6095575;23;99139;-75
2022/02/26 03:41:05;;;;;;;24.85;3.75;;;2.10;91.90;;;;;;6095220;23;101567;-75
2022/02/26 03:43:33;;;;;;;19.40;3.22;;;2.10;91.90;;;;;;6121721;23;99205;-74
2022/02/26 03:46:00;;;;;;;18.70;3.42;;;2.10;91.90;;;;;;6122358;23;98497;-74
2022/02/26 03:48:27;;;;;;;16.13;3.10;;;2.10;91.90;;;;;;6120203;23;99198;-75
2022/02/26 03:50:54;;;;;;;19.83;3.50;;;2.00;91.90;;;;;;6095380;23;101671;-74
2022/02/26 03:53:21;;;;;;;19.33;2.75;;;2.00;92.00;;;;;;6122442;23;98446;-74
2022/02/26 03:55:48;;;;;;;19.52;3.08;;;2.00;92.10;;;;;;6070926;23;98561;-75
2022/02/26 03:58:15;;;;;;;16.63;3.10;;;2.00;92.10;;;;;;6095179;23;101852;-74
2022/02/26 04:00:42;;;;;;;10.52;2.63;;;2.00;92.20;;;;;;6122113;23;99153;-74
2022/02/26 04:03:09;;;;;;;15.85;3.03;;;1.90;92.10;;;;;;6122039;23;98424;-74
2022/02/26 04:05:36;;;;;;;21.08;2.70;;;1.90;92.00;;;;;;6070465;23;98701;-74
2022/02/26 04:08:03;;;;;;;13.48;3.15;;;1.90;92.10;;;;;;6120130;23;115784;-74
2022/02/26 04:10:31;;;;;;;19.50;3.67;;;1.80;92.10;;;;;;6070638;23;102206;-74
2022/02/26 04:12:58;;;;;;;15.73;3.17;;;1.80;92.20;;;;;;6095984;23;98380;-74
2022/02/26 04:15:25;;;;;;;21.65;3.38;;;1.80;92.10;;;;;;6120062;23;98514;-74
2022/02/26 04:17:52;;;;;;;15.10;3.10;;;1.80;92.20;;;;;;6046394;23;101672;-74
2022/02/26 04:20:19;;;;;;;18.75;2.90;;;1.80;92.20;;;;;;6121598;23;99051;-74
2022/02/26 04:22:47;;;;;;;22.10;3.03;;;1.80;92.50;;;;;;6121781;23;98523;-75
2022/02/26 04:25:14;;;;;;;16.67;3.60;;;1.80;92.20;;;;;;6095955;23;98289;-74
2022/02/26 04:27:41;;;;;;;16.95;2.33;;;1.70;92.20;;;;;;6094742;23;110136;-74
2022/02/26 04:30:09;;;;;;;18.70;3.75;;;1.70;92.10;;;;;;6095534;23;99043;-75
2022/02/26 04:32:40;;;;;;;14.85;3.45;;;1.70;92.20;;;;;;6071287;23;99200;-74
2022/02/26 04:35:08;;;;;;;16.95;3.05;;;1.70;92.30;;;;;;6122264;23;99015;-74
2022/02/26 04:37:35;;;;;;;18.60;4.00;;;1.70;92.40;;;;;;6070313;23;100850;-74
2022/02/26 04:40:03;;;;;;;16.77;2.90;;;1.70;92.40;;;;;;6095089;23;101706;-74
2022/02/26 04:42:29;;;;;;;20.98;3.20;;;1.70;92.40;;;;;;6122174;23;98857;-74
2022/02/26 04:44:56;;;;;;;20.10;2.70;;;1.70;92.40;;;;;;6095127;23;98593;-74
2022/02/26 04:47:24;;;;;;;17.90;2.78;;;1.70;92.70;;;;;;6121473;23;99396;-74
2022/02/26 04:49:50;;;;;;;16.05;2.40;;;1.70;92.40;;;;;;6046189;23;115683;-74
2022/02/26 04:52:17;;;;;;;15.48;2.95;;;1.70;92.50;;;;;;6095684;23;98936;-74
2022/02/26 04:54:44;;;;;;;17.58;2.78;;;1.70;92.40;;;;;;6070573;23;98469;-74
2022/02/26 04:57:11;;;;;;;19.23;2.75;;;1.70;92.50;;;;;;6070681;23;100471;-74
2022/02/26 04:59:38;;;;;;;17.33;3.35;;;1.70;92.50;;;;;;6121153;23;99784;-74
2022/02/26 05:02:06;;;;;;;21.85;3.22;;;1.70;92.40;;;;;;6096101;23;98885;-74
2022/02/26 05:04:33;;;;;;;11.90;3.15;;;1.80;92.40;;;;;;6120132;23;98479;-74
2022/02/26 05:07:01;;;;;;;17.65;2.53;;;1.70;92.40;;;;;;6094853;23;102571;-74
2022/02/26 05:09:28;;;;;;;14.38;2.80;;;1.70;92.40;;;;;;6121429;23;98853;-74
2022/02/26 05:11:55;;;;;;;12.80;2.58;;;1.70;92.30;;;;;;6121844;23;98456;-74
2022/02/26 05:14:22;;;;;;;17.42;3.55;;;1.70;92.30;;;;;;6096204;23;97770;-74
2022/02/26 05:16:49;;;;;;;19.92;3.08;;;1.70;92.30;;;;;;6120674;23;99332;-74
2022/02/26 05:19:16;;;;;;;19.55;2.80;;;1.70;92.30;;;;;;6120707;23;98978;-74
2022/02/26 05:21:43;;;;;;;16.08;2.80;;;1.70;92.40;;;;;;6121399;23;99222;-74
2022/02/26 05:24:10;;;;;;;15.60;2.63;;;1.70;92.40;;;;;;6095279;23;98552;-74
2022/02/26 05:26:37;;;;;;;15.43;3.55;;;1.70;92.40;;;;;;6070327;23;101943;-74
2022/02/26 05:29:06;;;;;;;12.25;2.95;;;1.70;92.30;;;;;;6094639;23;101786;-74
2022/02/26 05:31:33;;;;;;;11.30;2.75;;;1.70;92.40;;;;;;6122031;23;98480;-74
2022/02/26 05:34:00;;;;;;;15.63;2.58;;;1.70;92.30;;;;;;6095410;23;98575;-74
2022/02/26 05:36:27;;;;;;;13.32;2.45;;;1.70;92.40;;;;;;6095031;23;99452;-74
2022/02/26 05:38:54;;;;;;;17.50;3.08;;;1.70;92.40;;;;;;6094863;23;101492;-74
2022/02/26 05:41:22;;;;;;;18.23;2.67;;;1.70;92.40;;;;;;6094845;23;99720;-74
2022/02/26 05:43:49;;;;;;;16.63;3.17;;;1.70;92.40;;;;;;6095289;23;99103;-74
2022/02/26 05:46:16;;;;;;;13.48;2.75;;;1.70;92.30;;;;;;6120751;23;99982;-74
2022/02/26 05:48:43;;;;;;;17.63;3.38;;;1.70;92.30;;;;;;6120842;23;99779;-74
2022/02/26 05:51:12;;;;;;;19.60;3.13;;;1.60;92.30;;;;;;6121657;23;98404;-74
2022/02/26 05:53:39;;;;;;;13.25;3.13;;;1.60;92.40;;;;;;6121571;23;98445;-74
2022/02/26 05:56:06;;;;;;;17.27;3.17;;;1.60;92.40;;;;;;6120811;23;99349;-74
2022/02/26 05:58:33;;;;;;;14.15;2.70;;;1.60;92.40;;;;;;6121185;23;99038;-74
2022/02/26 06:01:00;;;;;;;16.58;3.00;;;1.70;92.50;;;;;;6121169;23;98428;-74
2022/02/26 06:03:27;;;;;;;17.55;2.97;;;1.60;92.40;;;;;;6070968;23;97885;-74
2022/02/26 06:05:54;;;;;;;14.43;2.92;;;1.60;92.50;;;;;;6094149;23;99425;-75
2022/02/26 06:08:21;;;;;;;16.55;2.67;;;1.60;92.50;;;;;;6094903;23;98923;-74
2022/02/26 06:10:48;;;;;;;19.25;2.78;;;1.60;92.50;;;;;;6069894;23;99487;-74
2022/02/26 06:13:18;;;;;;;19.63;2.88;;;1.60;92.50;;;;;;6094745;23;98652;-74
2022/02/26 06:15:45;;;;;;;14.70;2.75;;;1.60;92.50;;;;;;6094269;23;99379;-74
2022/02/26 06:18:12;;;;;;;14.50;2.95;;;1.60;92.40;;;;;;6120965;23;100305;-74
2022/02/26 06:20:39;;;;;;;12.32;2.35;;;1.50;92.30;;;;;;6095306;23;98510;-74
2022/02/26 06:23:06;;;;;;;15.65;3.33;;;1.50;92.40;;;;;;6121430;23;99465;-74
2022/02/26 06:25:33;;;;;;;19.95;3.15;;;1.50;92.40;;;;;;6094635;23;99141;-74
2022/02/26 06:28:00;;;;;;;24.92;3.50;;;1.50;92.40;;;;;;6046037;23;101694;-74
2022/02/26 06:30:27;;;;;;;19.48;3.10;;;1.50;92.50;;;;;;6095586;23;98488;-74
2022/02/26 06:32:55;;;;;;;12.60;3.13;;;1.50;92.50;;;;;;6122434;23;98908;-74
2022/02/26 06:35:22;;;;;;;12.32;3.13;;;1.50;92.50;;;;;;6095492;23;100062;-74
2022/02/26 06:37:49;;;;;;;17.67;3.85;;;1.50;92.50;;;;;;6095330;23;105983;-74
2022/02/26 06:40:16;;;;;;;13.30;2.45;;;1.50;92.50;;;;;;6096070;23;98661;-74
2022/02/26 06:42:45;;;;;;;20.13;3.60;;;1.40;92.40;;;;;;6095841;23;98483;-74
2022/02/26 06:45:12;;;;;;;17.45;2.88;;;1.40;92.40;;;;;;6095112;23;100399;-74
2022/02/26 06:47:39;;;;;;;17.83;3.05;;;1.50;92.40;;;;;;6095470;23;100026;-74
2022/02/26 06:50:06;;;;;;;13.60;3.13;;;1.50;92.40;;;;;;6122265;23;98522;-74
2022/02/26 06:52:33;;;;;;;16.85;3.53;;;1.50;92.40;;;;;;6096790;23;97780;-74
2022/02/26 06:55:00;;;;;;;9.95;2.63;;;1.50;92.50;;;;;;6071288;23;99264;-74
2022/02/26 06:57:45;;;;;;;13.82;3.17;;;1.60;92.50;;;;;;6099940;23;98902;-74
2022/02/26 07:00:13;;;;;;;13.15;3.90;;;1.60;92.50;;;;;;6121017;23;103996;-74
2022/02/26 07:02:40;;;;;;;12.48;4.13;;;1.70;92.50;;;;;;6122459;23;98561;-74
2022/02/26 07:05:08;;;;;;;14.32;3.63;;;1.90;92.50;;;;;;6095619;23;99298;-74
2022/02/26 07:07:35;;;;;;;14.70;3.80;;;2.00;92.50;;;;;;6122067;23;98946;-74
2022/02/26 07:10:02;;;;;;;13.48;3.33;;;2.10;92.40;;;;;;6096033;23;98565;-74
2022/02/26 07:12:29;;;;;;;18.52;3.30;;;2.30;92.20;;;;;;6122436;23;98466;-74
2022/02/26 07:14:56;;;;;;;21.08;3.47;;;2.30;92.10;;;;;;6095195;23;99350;-74
2022/02/26 07:17:23;;;;;;;12.73;3.95;;;2.50;92.10;;;;;;6096418;23;99040;-74
2022/02/26 07:19:50;;;;;;;22.05;3.90;;;2.60;92.00;;;;;;6096310;23;98410;-74
2022/02/26 07:22:17;;;;;;;10.98;3.03;;;2.60;91.80;;;;;;6122110;23;98612;-74
2022/02/26 07:24:44;;;;;;;8.52;3.42;;;2.80;91.70;;;;;;6095402;23;100107;-74
2022/02/26 07:27:13;;;;;;;11.02;4.20;;;2.90;91.50;;;;;;6121790;23;99747;-74
2022/02/26 07:29:40;;;;;;;14.35;4.10;;;3.10;91.40;;;;;;6122430;23;98427;-74
2022/02/26 07:32:08;;;;;;;17.42;5.10;;;3.40;91.30;;;;;;6095930;23;98485;-74
2022/02/26 07:34:35;;;;;;;9.98;3.42;;;3.60;90.90;;;;;;6095713;23;99351;-74
2022/02/26 07:37:02;;;;;;;12.27;3.30;;;3.90;90.50;;;;;;6095765;23;98926;-74
2022/02/26 07:39:29;;;;;;;13.80;3.28;;;4.10;90.20;;;;;;6121915;23;105531;-75
2022/02/26 07:41:57;;;;;;;8.02;3.70;;;4.30;89.50;;;;;;6122494;23;98531;-75
2022/02/26 07:44:24;;;;;;;15.32;3.35;;;4.40;89.10;;;;;;6121827;23;99347;-75
2022/02/26 07:46:51;;;;;;;12.95;3.35;;;4.50;88.50;;;;;;6095944;23;98830;-75
2022/02/26 07:49:18;;;;;;;16.70;4.25;;;4.60;88.30;;;;;;6095782;23;99248;-75
2022/02/26 07:51:46;;;;;;;16.52;4.47;;;4.70;88.10;;;;;;6096475;23;98584;-75
2022/02/26 07:54:13;;;;;;;11.43;3.60;;;4.70;87.50;;;;;;6095590;23;99299;-75
2022/02/26 07:56:42;;;;;;;18.45;5.32;;;4.80;87.50;;;;;;6121346;23;98985;-75
2022/02/26 07:59:09;;;;;;;10.45;7.72;;;4.80;87.50;;;;;;6122411;23;98461;-75
2022/02/26 08:01:37;;;;;;;12.88;4.43;;;5.00;87.70;;;;;;6096420;23;98810;-75
2022/02/26 08:04:07;;;;;;;13.40;3.55;;;5.20;87.10;;;;;;6095062;23;101898;-75
2022/02/26 08:06:34;;;;;;;18.40;5.50;;;5.40;86.20;;;;;;6071300;23;102811;-75
2022/02/26 08:09:01;;;;;;;22.63;7.45;;;5.50;85.80;;;;;;6071681;23;98552;-75
2022/02/26 08:11:30;;;;;;;19.17;12.80;;;5.70;85.40;;;;;;6122313;23;98549;-75
2022/02/26 08:13:59;;;;;;;17.45;15.70;;;5.90;85.00;;;;;;6095058;23;99845;-75
2022/02/26 08:16:26;;;;;;;19.63;18.27;;;6.20;84.70;;;;;;6094268;23;99744;-75
2022/02/26 08:18:55;;;;;;;20.13;18.38;;;6.50;84.10;;;;;;6094557;23;98640;-75
2022/02/26 08:21:23;;;;;;;21.15;19.58;;;6.90;82.30;;;;;;6121144;23;99623;-75
2022/02/26 08:23:50;;;;;;;23.80;21.80;;;7.30;81.50;;;;;;6120977;23;99230;-75
2022/02/26 08:26:18;;;;;;;9.65;2.78;;;7.60;80.10;;;;;;6094422;23;98981;-75
2022/02/26 08:28:46;;;;;;;10.15;2.70;;;7.90;79.60;;;;;;6095740;23;99129;-76
2022/02/26 08:31:14;;;;;;;12.35;3.40;;;8.10;78.70;;;;;;6096173;23;97827;-76
2022/02/26 08:33:41;;;;;;;15.30;3.33;;;8.20;77.90;;;;;;6121565;23;99251;-76
2022/02/26 08:36:08;;;;;;;8.80;3.03;;;8.20;77.10;;;;;;6094851;23;101757;-76
2022/02/26 08:38:35;;;;;;;11.80;3.55;;;8.20;77.60;;;;;;6121880;23;99199;-75
2022/02/26 08:41:02;;;;;;;13.13;3.45;;;8.10;77.50;;;;;;6071196;23;98569;-75
2022/02/26 08:43:29;;;;;;;14.52;3.58;;;7.90;77.90;;;;;;6121369;23;99352;-75
2022/02/26 08:45:56;;;;;;;13.60;3.00;;;7.80;78.70;;;;;;6121541;23;99003;-75
2022/02/26 08:48:23;;;;;;;15.40;3.30;;;7.60;78.40;;;;;;6121986;23;98790;-75
2022/02/26 08:50:51;;;;;;;12.98;3.05;;;7.50;78.90;;;;;;6122130;23;98470;-75
2022/02/26 08:53:18;;;;;;;12.15;3.05;;;7.40;79.50;;;;;;6094765;23;101872;-75
2022/02/26 08:55:45;;;;;;;13.50;2.90;;;7.30;80.00;;;;;;6121877;23;99016;-75
2022/02/26 08:58:12;;;;;;;11.48;2.72;;;7.20;80.30;;;;;;6070786;23;98456;-75
2022/02/26 09:00:39;;;;;;;14.50;3.65;;;7.10;80.60;;;;;;6070891;23;98587;-75
2022/02/26 09:03:07;;;;;;;8.77;2.88;;;7.00;81.10;;;;;;6120997;23;100056;-75
2022/02/26 09:05:34;;;;;;;10.93;3.15;;;7.00;81.50;;;;;;6121491;23;99585;-75
2022/02/26 09:08:02;;;;;;;15.02;3.08;;;6.90;81.80;;;;;;6095842;23;98490;-75
2022/02/26 09:10:29;;;;;;;14.60;3.50;;;6.90;81.80;;;;;;6095293;23;98622;-75
2022/02/26 09:12:56;;;;;;;14.63;3.30;;;6.90;82.30;;;;;;6094924;23;111368;-75
2022/02/26 09:15:23;;;;;;;18.35;2.90;;;6.90;82.50;;;;;;6120385;23;99001;-75
2022/02/26 09:17:51;;;;;;;12.55;3.10;;;6.90;82.60;;;;;;6071274;23;98459;-75
2022/02/26 09:20:18;;;;;;;18.00;2.90;;;6.90;82.40;;;;;;6121915;23;97740;-75
2022/02/26 09:22:45;;;;;;;15.98;3.45;;;7.00;82.70;;;;;;6121443;23;99468;-75
2022/02/26 09:25:13;;;;;;;10.38;2.85;;;7.10;82.80;;;;;;6095240;23;99022;-75
2022/02/26 09:27:41;;;;;;;17.23;3.60;;;7.10;82.80;;;;;;6121629;23;99153;-75
2022/02/26 09:30:09;;;;;;;17.63;3.50;;;7.20;82.70;;;;;;6095776;23;98487;-75
2022/02/26 09:32:37;;;;;;;11.25;2.85;;;7.30;82.60;;;;;;6094774;23;102297;-75
2022/02/26 09:35:05;;;;;;;14.57;2.88;;;7.30;82.40;;;;;;6121235;23;98993;-75
2022/02/26 09:37:32;;;;;;;18.55;4.50;;;7.40;82.10;;;;;;6121640;23;98462;-75
2022/02/26 09:39:59;;;;;;;6.88;3.30;;;7.40;81.60;;;;;;6095412;23;98476;-75
2022/02/26 09:42:28;;;;;;;13.18;3.00;;;7.50;81.60;;;;;;6094841;23;99309;-75
2022/02/26 09:44:56;;;;;;;14.95;3.15;;;7.70;81.50;;;;;;6095753;23;99012;-75
2022/02/26 09:47:23;;;;;;;17.02;2.95;;;7.70;81.40;;;;;;6094963;23;98563;-75
2022/02/26 09:49:50;;;;;;;12.05;3.45;;;7.80;81.20;;;;;;6095639;23;99030;-75
2022/02/26 09:52:22;;;;;;;12.65;2.20;;;7.90;81.10;;;;;;6070142;23;102459;-75
2022/02/26 09:54:48;;;;;;;15.55;2.88;;;8.00;80.70;;;;;;6094780;23;110573;-75
2022/02/26 09:57:18;;;;;;;15.23;3.42;;;8.00;80.30;;;;;;6121429;23;98493;-75
2022/02/26 09:59:45;;;;;;;13.88;3.13;;;8.10;80.30;;;;;;6070470;23;98548;-75
2022/02/26 10:02:12;;;;;;;16.15;3.10;;;8.20;80.20;;;;;;6094411;23;101029;-75
2022/02/26 10:04:57;;;;;;;13.70;3.42;;;8.20;80.00;;;;;;6120842;23;98912;-75
2022/02/26 10:07:26;;;;;;;10.93;3.08;;;8.40;80.00;;;;;;6124758;23;98505;-75
2022/02/26 10:09:55;;;;;;;16.50;2.92;;;8.30;79.50;;;;;;6125370;23;97772;-75
2022/02/26 10:12:27;;;;;;;19.25;3.17;;;8.40;79.20;;;;;;6097676;23;101808;-75
2022/02/26 10:14:58;;;;;;;14.80;3.42;;;8.50;79.10;;;;;;6097446;23;101767;-75
2022/02/26 10:17:33;;;;;;;12.07;2.83;;;8.50;78.40;;;;;;6097549;23;99390;-75
2022/02/26 10:20:08;;;;;;;13.38;3.92;;;8.60;77.90;;;;;;6124870;23;98587;-75
2022/02/26 10:22:38;;;;;;;15.82;2.78;;;8.70;77.00;;;;;;6097882;23;99420;-75
2022/02/26 10:25:13;;;;;;;15.20;3.05;;;8.80;76.60;;;;;;6098084;23;99121;-75
2022/02/26 10:27:47;;;;;;;13.48;2.30;;;8.90;76.30;;;;;;6098021;23;98462;-76
2022/02/26 10:30:36;;;;;;;15.82;5.38;;;8.90;75.50;;;;;;6098287;23;98466;-75
2022/02/26 10:33:09;;;;;;;11.40;3.33;;;9.00;75.20;;;;;;6073494;23;101941;-76
2022/02/26 10:35:54;;;;;;;21.58;9.88;;;9.00;75.00;;;;;;6124428;23;98924;-75
2022/02/26 10:38:23;;;;;;;13.70;2.83;;;9.10;74.00;;;;;;6098001;23;98491;-75
2022/02/26 10:40:52;;;;;;;17.70;3.30;;;9.10;73.80;;;;;;6098480;23;98521;-76
2022/02/26 10:43:49;;;;;;;13.85;3.15;;;9.20;73.10;;;;;;6123449;23;99933;-76
2022/02/26 10:46:26;;;;;;;35.08;16.13;;;9.40;73.60;;;;;;6124148;23;99746;-76
2022/02/26 10:49:09;;;;;;;12.20;2.65;;;9.40;72.20;;;;;;6097679;23;98827;-76
2022/02/26 10:51:39;;;;;;;14.65;2.65;;;9.50;71.40;;;;;;6097595;23;98481;-76
2022/02/26 10:54:09;;;;;;;18.35;3.35;;;9.50;70.30;;;;;;6097259;23;100976;-76
2022/02/26 10:56:39;;;;;;;8.77;2.15;;;9.60;67.80;;;;;;6097692;23;99847;-76
2022/02/26 10:59:09;;;;;;;13.15;1.85;;;9.60;69.00;;;;;;6124567;23;98922;-76
2022/02/26 11:01:39;;;;;;;12.65;2.42;;;9.70;69.40;;;;;;6074625;23;98107;-76
2022/02/26 11:04:06;;;;;;;10.15;1.90;;;9.80;69.20;;;;;;6123319;23;112464;-76
2022/02/26 11:06:33;;;;;;;12.70;2.45;;;9.80;69.20;;;;;;6123730;23;99552;-76
2022/02/26 11:09:01;;;;;;;14.60;2.42;;;9.90;69.70;;;;;;6097930;23;99197;-76
2022/02/26 11:11:28;;;;;;;16.00;2.78;;;9.90;67.40;;;;;;6073573;23;98578;-76
2022/02/26 11:13:59;;;;;;;10.13;2.65;;;9.80;67.30;;;;;;6123924;23;99154;-76
2022/02/26 11:16:27;;;;;;;9.68;2.13;;;9.80;67.30;;;;;;6122802;23;99038;-76
2022/02/26 11:18:58;;;;;;;12.80;2.47;;;9.80;68.30;;;;;;6095850;23;98467;-76
2022/02/26 11:21:25;;;;;;;11.98;2.72;;;9.90;69.30;;;;;;6096367;23;98489;-76
2022/02/26 11:23:52;;;;;;;13.10;2.10;;;9.90;69.60;;;;;;6095433;23;108587;-76
2022/02/26 11:26:21;;;;;;;17.52;2.45;;;9.90;69.10;;;;;;6095510;23;101808;-76
2022/02/26 11:28:56;;;;;;;9.93;2.28;;;9.90;68.90;;;;;;6097502;23;98366;-76
2022/02/26 11:31:33;;;;;;;8.55;2.22;;;10.00;68.20;;;;;;6122255;23;98458;-76
2022/02/26 11:34:01;;;;;;;12.95;2.22;;;10.00;67.80;;;;;;6094907;23;102853;-76
2022/02/26 11:36:52;;;;;;;10.75;2.45;;;10.00;67.00;;;;;;6096057;23;99645;-76
2022/02/26 11:39:35;;;;;;;9.23;2.20;;;10.10;66.30;;;;;;6121056;23;99053;-76
2022/02/26 11:42:23;;;;;;;10.50;2.30;;;10.10;67.00;;;;;;6096266;23;98534;-76
2022/02/26 11:45:01;;;;;;;10.25;1.98;;;10.20;66.70;;;;;;6095415;23;99256;-76
2022/02/26 11:47:36;;;;;;;11.50;2.50;;;10.20;65.80;;;;;;6121813;23;98829;-76
2022/02/26 11:50:10;;;;;;;12.00;2.50;;;10.10;66.90;;;;;;6122299;23;98827;-76
2022/02/26 11:52:58;;;;;;;14.07;3.58;;;10.10;65.70;;;;;;6096079;23;97821;-76
2022/02/26 11:55:31;;;;;;;20.63;3.13;;;10.20;66.20;;;;;;6095624;23;99491;-76
2022/02/26 11:58:08;;;;;;;13.33;2.33;;;10.10;65.60;;;;;;6095483;23;101714;-76
2022/02/26 12:00:48;;;;;;;13.13;2.25;;;10.10;66.30;;;;;;6095551;23;99753;-76
2022/02/26 12:03:26;;;;;;;8.35;2.35;;;10.10;65.70;;;;;;6096021;23;98550;-76
2022/02/26 12:06:20;;;;;;;11.05;2.42;;;10.20;66.80;;;;;;6094803;23;101612;-76
2022/02/26 12:08:53;;;;;;;9.63;1.92;;;10.20;66.40;;;;;;6094905;23;101542;-76
2022/02/26 12:11:20;;;;;;;11.60;2.92;;;10.20;67.70;;;;;;6095919;23;98553;-76
2022/02/26 12:13:59;;;;;;;12.60;2.60;;;10.30;66.60;;;;;;6121793;23;98409;-76
2022/02/26 12:16:28;;;;;;;7.88;1.73;;;10.40;66.80;;;;;;6119766;23;99169;-76
2022/02/26 12:19:03;;;;;;;10.63;2.33;;;10.50;66.00;;;;;;6096278;23;98842;-76
2022/02/26 12:21:32;;;;;;;;;;;10.50;66.30;;;;;;6096505;23;98498;-77
2022/02/26 12:24:17;;;;;;;10.52;2.30;;;10.50;66.10;;;;;;6123306;23;98490;-76
2022/02/26 12:27:08;;;;;;;9.95;1.92;;;10.60;65.60;;;;;;6121034;23;100020;-76
2022/02/26 12:29:43;;;;;;;12.48;2.40;;;10.70;66.70;;;;;;6094845;23;103606;-76
2022/02/26 12:32:14;;;;;;;12.25;2.58;;;10.70;65.70;;;;;;6096239;23;98490;-76
2022/02/26 12:34:47;;;;;;;9.00;2.33;;;10.80;65.50;;;;;;6095928;23;98909;-76
2022/02/26 12:37:20;;;;;;;10.50;2.57;;;10.80;66.20;;;;;;6121634;23;99297;-76
2022/02/26 12:39:56;;;;;;;11.60;2.22;;;10.70;66.70;;;;;;6121471;23;99043;-76
2022/02/26 12:42:26;;;;;;;16.23;2.67;;;10.70;65.60;;;;;;6120779;23;98686;-76
2022/02/26 12:44:59;;;;;;;13.25;2.60;;;10.60;64.40;;;;;;6122325;23;97715;-76
2022/02/26 12:47:27;;;;;;;15.88;2.47;;;10.60;64.60;;;;;;6095429;23;101883;-76
2022/02/26 12:49:55;;;;;;;15.23;2.72;;;10.50;65.00;;;;;;6094764;23;101765;-76
2022/02/26 12:52:30;;;;;;;10.00;1.95;;;10.50;65.30;;;;;;6121770;23;99186;-76
2022/02/26 12:54:59;;;;;;;5.80;2.03;;;10.50;66.10;;;;;;6095770;23;98568;-76